Time;durP1;ratioP1;P1;durP2;ratioP2;P2;SDS_P1;SDS_P2;PMS_P1;PMS_P2;Temp;Humidity;BMP_temperature;BMP_pressure;BME280_temperature;BME280_humidity;BME280_pressure;Samples;Min_cycle;Max_cycle;Signal;HPM_P1;HPM_P2
2023/09/06 00:28:25;;;;;;;7.03;4.40;;;;;;;;;;5033162;28;20063;-78
2023/09/06 00:30:51;;;;;;;9.95;3.92;;;;;;;;;;5034713;28;20045;-79
2023/09/06 00:33:17;;;;;;;7.07;4.40;;;;;;;;;;5032214;28;20042;-78
2023/09/06 00:35:43;;;;;;;7.15;4.13;;;;;;;;;;5032901;28;20046;-78
2023/09/06 00:38:10;;;;;;;7.20;4.38;;;;;;;;;;5031946;28;20056;-78
2023/09/06 00:40:37;;;;;;;6.13;3.83;;;;;;;;;;5033874;28;20041;-77
2023/09/06 00:43:04;;;;;;;8.10;4.15;;;;;;;;;;5031355;28;20079;-78
2023/09/06 00:45:48;;;;;;;7.30;4.45;;;;;;;;;;5014142;28;20053;-77
2023/09/06 00:48:15;;;;;;;7.68;3.95;;;;;;;;;;5033723;28;20561;-77
2023/09/06 00:50:41;;;;;;;9.43;4.13;;;;;;;;;;5033636;28;20045;-77
2023/09/06 00:53:08;;;;;;;6.50;4.05;;;;;;;;;;5034143;28;20408;-77
2023/09/06 00:55:37;;;;;;;6.88;4.38;;;;;;;;;;5015499;28;20079;-78
2023/09/06 00:58:03;;;;;;;6.30;4.25;;;;;;;;;;5013901;28;20654;-78
2023/09/06 01:00:30;;;;;;;8.52;4.63;;;;;;;;;;5032702;28;20506;-78
2023/09/06 01:02:56;;;;;;;6.18;4.43;;;;;;;;;;5033034;28;20049;-78
2023/09/06 01:05:24;;;;;;;7.85;4.63;;;;;;;;;;5033567;28;20045;-78
2023/09/06 01:07:54;;;;;;;10.48;5.15;;;;;;;;;;5014520;28;20042;-78
2023/09/06 01:10:20;;;;;;;7.35;4.47;;;;;;;;;;5015582;28;20050;-78
2023/09/06 01:12:47;;;;;;;6.22;4.50;;;;;;;;;;5014216;28;20046;-78
2023/09/06 01:15:13;;;;;;;8.75;4.68;;;;;;;;;;5027790;28;20077;-78
2023/09/06 01:17:42;;;;;;;6.78;5.05;;;;;;;;;;5028844;28;20515;-78
2023/09/06 01:20:15;;;;;;;8.45;4.55;;;;;;;;;;5029919;28;20115;-78
2023/09/06 01:22:44;;;;;;;7.72;5.10;;;;;;;;;;5031403;28;20033;-78
2023/09/06 01:25:11;;;;;;;7.45;4.68;;;;;;;;;;5032113;28;20048;-78
2023/09/06 01:27:38;;;;;;;7.95;4.50;;;;;;;;;;5032566;28;20451;-78
2023/09/06 01:30:04;;;;;;;7.95;4.50;;;;;;;;;;5030842;28;20049;-78
2023/09/06 01:32:30;;;;;;;8.32;5.05;;;;;;;;;;5033185;28;20418;-78
2023/09/06 01:34:56;;;;;;;6.90;4.80;;;;;;;;;;5032088;28;20048;-78
2023/09/06 01:37:22;;;;;;;6.75;4.38;;;;;;;;;;5031171;28;20049;-78
2023/09/06 01:39:48;;;;;;;8.60;4.43;;;;;;;;;;5027992;28;20064;-78
2023/09/06 01:42:14;;;;;;;10.00;4.50;;;;;;;;;;5031969;28;20099;-77
2023/09/06 01:44:40;;;;;;;6.93;4.38;;;;;;;;;;5029892;28;20061;-78
2023/09/06 01:47:07;;;;;;;7.30;4.70;;;;;;;;;;5031149;28;20053;-78
2023/09/06 01:49:33;;;;;;;7.60;4.78;;;;;;;;;;5030719;28;20418;-78
2023/09/06 01:52:01;;;;;;;6.07;4.30;;;;;;;;;;5032534;28;20045;-78
2023/09/06 01:54:27;;;;;;;8.38;4.70;;;;;;;;;;5030934;28;20607;-78
2023/09/06 01:56:53;;;;;;;7.60;4.70;;;;;;;;;;5032815;28;20044;-78
2023/09/06 01:59:19;;;;;;;7.35;4.57;;;;;;;;;;5030385;28;20049;-78
2023/09/06 02:01:45;;;;;;;7.13;4.25;;;;;;;;;;5031945;28;20103;-78
2023/09/06 02:04:12;;;;;;;7.13;4.55;;;;;;;;;;5032375;28;20041;-78
2023/09/06 02:06:38;;;;;;;6.40;4.20;;;;;;;;;;5031586;28;20431;-78
2023/09/06 02:09:04;;;;;;;7.15;4.43;;;;;;;;;;5029790;28;20037;-78
2023/09/06 02:11:31;;;;;;;6.45;4.50;;;;;;;;;;5032566;28;20052;-78
2023/09/06 02:13:57;;;;;;;8.60;4.95;;;;;;;;;;5032654;28;20045;-78
2023/09/06 02:16:24;;;;;;;7.00;4.65;;;;;;;;;;5031543;28;20407;-78
2023/09/06 02:18:50;;;;;;;7.55;4.68;;;;;;;;;;5029616;28;20521;-78
2023/09/06 02:21:17;;;;;;;11.52;4.40;;;;;;;;;;5032107;28;20590;-78
2023/09/06 02:23:43;;;;;;;7.78;3.83;;;;;;;;;;5031695;28;20488;-78
2023/09/06 02:26:09;;;;;;;6.50;4.00;;;;;;;;;;5032747;28;20049;-78
2023/09/06 02:28:36;;;;;;;8.65;3.83;;;;;;;;;;5031249;28;20062;-77
2023/09/06 02:31:02;;;;;;;6.50;3.85;;;;;;;;;;5031729;28;20037;-77
2023/09/06 02:33:28;;;;;;;7.15;4.25;;;;;;;;;;5032015;28;20096;-78
2023/09/06 02:35:54;;;;;;;8.05;4.00;;;;;;;;;;5031121;28;20052;-78
2023/09/06 02:38:20;;;;;;;6.85;4.40;;;;;;;;;;5030493;28;20045;-78
2023/09/06 02:40:46;;;;;;;8.48;4.60;;;;;;;;;;5029873;28;20045;-77
2023/09/06 02:43:13;;;;;;;6.95;5.22;;;;;;;;;;5030153;28;20116;-77
2023/09/06 02:45:39;;;;;;;7.40;5.30;;;;;;;;;;5032286;28;20056;-77
2023/09/06 02:48:06;;;;;;;7.40;4.60;;;;;;;;;;5031964;28;20037;-77
2023/09/06 02:50:34;;;;;;;7.90;4.70;;;;;;;;;;5031126;28;20535;-77
2023/09/06 02:53:01;;;;;;;6.38;4.85;;;;;;;;;;5032720;28;20182;-77
2023/09/06 02:55:27;;;;;;;6.22;4.30;;;;;;;;;;5025508;28;20124;-77
2023/09/06 02:57:56;;;;;;;7.00;3.70;;;;;;;;;;5031783;28;20053;-77
2023/09/06 03:02:50;;;;;;;6.43;4.38;;;;;;;;;;5032209;28;20049;-77
2023/09/06 03:05:17;;;;;;;7.30;5.03;;;;;;;;;;5032237;28;20499;-77
2023/09/06 03:07:50;;;;;;;8.30;4.25;;;;;;;;;;5032179;28;20042;-78
2023/09/06 03:10:19;;;;;;;7.95;5.20;;;;;;;;;;5031153;28;20046;-78
2023/09/06 03:12:45;;;;;;;8.30;4.90;;;;;;;;;;5026498;28;20046;-77
2023/09/06 03:15:13;;;;;;;9.48;4.82;;;;;;;;;;5030180;28;20045;-77
2023/09/06 03:17:39;;;;;;;8.23;5.38;;;;;;;;;;5031449;28;20053;-77
2023/09/06 03:22:51;;;;;;;7.70;4.53;;;;;;;;;;5016667;28;20045;-77
2023/09/06 03:25:17;;;;;;;7.32;5.07;;;;;;;;;;5011204;28;20100;-77
2023/09/06 03:27:44;;;;;;;9.30;5.20;;;;;;;;;;5031343;28;20045;-77
2023/09/06 03:30:15;;;;;;;9.45;5.60;;;;;;;;;;5028561;28;20041;-77
2023/09/06 03:32:42;;;;;;;8.27;5.70;;;;;;;;;;5029869;28;20419;-77
2023/09/06 03:35:08;;;;;;;10.25;6.10;;;;;;;;;;5032622;28;20312;-77
2023/09/06 03:37:34;;;;;;;10.07;5.22;;;;;;;;;;5034421;28;20089;-77
2023/09/06 03:40:00;;;;;;;11.25;5.80;;;;;;;;;;5030429;28;20037;-77
2023/09/06 03:42:27;;;;;;;8.52;5.22;;;;;;;;;;5033963;28;20053;-77
2023/09/06 03:44:53;;;;;;;10.02;5.60;;;;;;;;;;5031998;28;20500;-77
2023/09/06 03:47:19;;;;;;;9.07;5.30;;;;;;;;;;5032860;28;20057;-77
2023/09/06 03:49:45;;;;;;;8.90;5.63;;;;;;;;;;5032890;28;20041;-77
2023/09/06 03:52:12;;;;;;;8.48;5.13;;;;;;;;;;5034610;28;20052;-77
2023/09/06 03:54:38;;;;;;;7.93;6.22;;;;;;;;;;5031272;28;20052;-77
2023/09/06 03:57:05;;;;;;;8.50;5.78;;;;;;;;;;5035239;28;20116;-77
2023/09/06 03:59:35;;;;;;;10.05;5.68;;;;;;;;;;5033006;28;20045;-77
2023/09/06 04:02:01;;;;;;;6.85;4.78;;;;;;;;;;5033985;28;20064;-77
2023/09/06 04:04:28;;;;;;;7.43;5.57;;;;;;;;;;5032529;28;20042;-77
2023/09/06 04:06:54;;;;;;;9.02;5.35;;;;;;;;;;5034433;28;20381;-77
2023/09/06 04:09:27;;;;;;;10.10;5.20;;;;;;;;;;5034172;28;20096;-78
2023/09/06 04:11:54;;;;;;;8.70;5.88;;;;;;;;;;5026321;28;20125;-77
2023/09/06 04:14:22;;;;;;;8.27;5.78;;;;;;;;;;5032194;28;20080;-77
2023/09/06 04:16:48;;;;;;;8.25;5.93;;;;;;;;;;5016904;28;20600;-77
2023/09/06 04:19:14;;;;;;;9.50;5.80;;;;;;;;;;5032157;28;20092;-78
2023/09/06 04:21:41;;;;;;;9.20;5.72;;;;;;;;;;5033738;28;20128;-78
2023/09/06 04:24:07;;;;;;;7.90;5.18;;;;;;;;;;5031815;28;20057;-78
2023/09/06 04:26:34;;;;;;;8.60;6.05;;;;;;;;;;5033231;28;20084;-78
2023/09/06 04:29:03;;;;;;;9.32;5.80;;;;;;;;;;5033709;28;20412;-78
2023/09/06 04:31:30;;;;;;;8.10;5.85;;;;;;;;;;5012713;28;20080;-77
2023/09/06 04:33:58;;;;;;;8.40;5.20;;;;;;;;;;5022230;28;20040;-77
2023/09/06 04:36:24;;;;;;;7.05;5.53;;;;;;;;;;5032936;28;20061;-78
2023/09/06 04:38:50;;;;;;;8.02;5.88;;;;;;;;;;5031907;28;20114;-78
2023/09/06 04:41:16;;;;;;;10.57;6.25;;;;;;;;;;5030689;28;20052;-77
2023/09/06 04:43:42;;;;;;;8.35;5.80;;;;;;;;;;5032677;28;20056;-78
2023/09/06 04:46:08;;;;;;;7.32;5.70;;;;;;;;;;5030588;28;20415;-78
2023/09/06 04:48:36;;;;;;;7.30;5.50;;;;;;;;;;5031770;28;20041;-77
2023/09/06 04:51:02;;;;;;;9.65;5.63;;;;;;;;;;5031634;28;20055;-78
2023/09/06 04:53:28;;;;;;;7.40;5.55;;;;;;;;;;5032844;28;20056;-77
2023/09/06 04:55:54;;;;;;;7.78;5.72;;;;;;;;;;5020112;28;20377;-77
2023/09/06 04:58:21;;;;;;;9.90;5.85;;;;;;;;;;5019146;28;20080;-77
2023/09/06 05:00:47;;;;;;;8.82;5.63;;;;;;;;;;5032750;28;20057;-77
2023/09/06 05:03:17;;;;;;;7.97;5.80;;;;;;;;;;5032587;28;20443;-78
2023/09/06 05:05:45;;;;;;;8.10;5.80;;;;;;;;;;5028183;28;20049;-78
2023/09/06 05:08:11;;;;;;;8.85;5.80;;;;;;;;;;5033281;28;20156;-78
2023/09/06 05:10:37;;;;;;;8.73;6.30;;;;;;;;;;5030250;28;20510;-78
2023/09/06 05:13:07;;;;;;;9.60;5.88;;;;;;;;;;5032333;28;20144;-78
2023/09/06 05:15:34;;;;;;;9.52;5.63;;;;;;;;;;5032986;28;20485;-78
2023/09/06 05:18:00;;;;;;;9.65;5.93;;;;;;;;;;5040567;28;20057;-78
2023/09/06 05:20:28;;;;;;;10.38;6.43;;;;;;;;;;5033868;28;20037;-78
2023/09/06 05:22:55;;;;;;;11.73;6.10;;;;;;;;;;5032449;28;20053;-78
2023/09/06 05:25:21;;;;;;;12.32;6.00;;;;;;;;;;5026073;28;20046;-78
2023/09/06 05:27:48;;;;;;;9.82;5.75;;;;;;;;;;5033057;28;20049;-78
2023/09/06 05:30:14;;;;;;;9.20;6.28;;;;;;;;;;5031468;28;20518;-78
2023/09/06 05:32:40;;;;;;;9.40;6.30;;;;;;;;;;5007115;28;20125;-78
2023/09/06 05:35:06;;;;;;;14.30;6.50;;;;;;;;;;5029553;28;20048;-78
2023/09/06 05:37:32;;;;;;;7.60;5.60;;;;;;;;;;5033171;28;20060;-78
2023/09/06 05:39:58;;;;;;;8.82;5.18;;;;;;;;;;5029512;28;20081;-78
2023/09/06 05:42:24;;;;;;;7.75;5.60;;;;;;;;;;5031556;28;20081;-79
2023/09/06 05:44:50;;;;;;;8.32;4.68;;;;;;;;;;5031418;28;20073;-78
2023/09/06 05:47:16;;;;;;;8.38;4.78;;;;;;;;;;5033078;28;20045;-78
2023/09/06 05:49:42;;;;;;;8.88;4.82;;;;;;;;;;5034526;28;20050;-78
2023/09/06 05:52:08;;;;;;;6.40;4.15;;;;;;;;;;5028371;28;20050;-77
2023/09/06 05:54:34;;;;;;;7.95;4.47;;;;;;;;;;5030287;28;20080;-77
2023/09/06 05:57:01;;;;;;;9.38;4.60;;;;;;;;;;5031704;28;20029;-77
2023/09/06 05:59:27;;;;;;;13.35;4.80;;;;;;;;;;5012003;28;20423;-77
2023/09/06 06:01:53;;;;;;;7.13;4.18;;;;;;;;;;5026325;28;20056;-77
2023/09/06 06:04:20;;;;;;;6.70;4.13;;;;;;;;;;5025151;28;20053;-78
2023/09/06 06:06:47;;;;;;;8.50;4.45;;;;;;;;;;5026902;28;20399;-78
2023/09/06 06:09:15;;;;;;;9.60;4.43;;;;;;;;;;5032150;28;20488;-78
2023/09/06 06:11:41;;;;;;;9.93;4.40;;;;;;;;;;5032455;28;20048;-78
2023/09/06 06:14:08;;;;;;;8.02;4.35;;;;;;;;;;5039493;28;20045;-80
2023/09/06 06:16:35;;;;;;;9.57;4.20;;;;;;;;;;5038322;28;20041;-79
2023/09/06 06:19:01;;;;;;;8.20;4.20;;;;;;;;;;5042647;28;20107;-80
2023/09/06 06:21:28;;;;;;;8.55;4.22;;;;;;;;;;5043068;28;20042;-80
2023/09/06 06:23:55;;;;;;;8.00;4.40;;;;;;;;;;5041718;28;20038;-80
2023/09/06 06:26:21;;;;;;;7.82;4.40;;;;;;;;;;5024630;28;20136;-80
2023/09/06 06:28:49;;;;;;;7.65;4.65;;;;;;;;;;5043807;28;20042;-80
2023/09/06 06:31:15;;;;;;;9.70;5.00;;;;;;;;;;5025617;28;20064;-80
2023/09/06 06:33:43;;;;;;;6.72;4.30;;;;;;;;;;5041471;28;20045;-80
2023/09/06 06:36:09;;;;;;;6.47;4.65;;;;;;;;;;5042163;28;20058;-80
2023/09/06 06:38:35;;;;;;;7.57;4.03;;;;;;;;;;5010900;28;20081;-81
2023/09/06 06:41:02;;;;;;;12.00;4.95;;;;;;;;;;5042221;28;20052;-80
2023/09/06 06:43:28;;;;;;;6.90;3.90;;;;;;;;;;5042039;28;20100;-80
2023/09/06 06:45:55;;;;;;;6.60;4.38;;;;;;;;;;5043821;28;20044;-80
2023/09/06 06:48:21;;;;;;;8.57;4.15;;;;;;;;;;5039774;28;20075;-79
2023/09/06 06:50:48;;;;;;;7.03;4.68;;;;;;;;;;5043194;28;20048;-81
2023/09/06 06:53:14;;;;;;;8.60;4.45;;;;;;;;;;5023952;28;20041;-80
2023/09/06 06:55:41;;;;;;;6.18;4.13;;;;;;;;;;5038287;28;20401;-80
2023/09/06 06:58:07;;;;;;;6.70;4.63;;;;;;;;;;5024312;28;20042;-80
2023/09/06 07:00:35;;;;;;;8.30;4.22;;;;;;;;;;5042452;28;20103;-80
2023/09/06 07:03:02;;;;;;;7.68;4.13;;;;;;;;;;5025841;28;20077;-81
2023/09/06 07:05:28;;;;;;;7.97;4.22;;;;;;;;;;5044525;28;20093;-80
2023/09/06 07:07:54;;;;;;;6.22;4.10;;;;;;;;;;5022142;28;20116;-81
2023/09/06 07:10:21;;;;;;;8.35;4.22;;;;;;;;;;5044645;28;20053;-81
2023/09/06 07:12:48;;;;;;;6.97;3.95;;;;;;;;;;5045519;28;20057;-81
2023/09/06 07:15:15;;;;;;;6.40;3.80;;;;;;;;;;5046491;28;20553;-81
2023/09/06 07:17:41;;;;;;;6.78;4.30;;;;;;;;;;5045940;28;20132;-80
2023/09/06 07:20:08;;;;;;;8.13;4.50;;;;;;;;;;5045524;28;20565;-81
2023/09/06 07:22:34;;;;;;;7.30;4.07;;;;;;;;;;5046690;28;20049;-81
2023/09/06 07:25:00;;;;;;;7.97;3.95;;;;;;;;;;5043690;28;20136;-81
2023/09/06 07:27:26;;;;;;;6.10;3.80;;;;;;;;;;5037582;28;20048;-81
2023/09/06 07:29:53;;;;;;;8.43;4.03;;;;;;;;;;5040992;28;20052;-81
2023/09/06 07:32:19;;;;;;;8.88;4.03;;;;;;;;;;5040400;28;20598;-81
2023/09/06 07:34:45;;;;;;;8.38;4.30;;;;;;;;;;5025208;28;20049;-80
2023/09/06 07:37:11;;;;;;;7.60;4.28;;;;;;;;;;5028749;28;20054;-81
2023/09/06 07:39:37;;;;;;;5.80;4.25;;;;;;;;;;5042725;28;20049;-81
2023/09/06 07:42:05;;;;;;;8.43;3.78;;;;;;;;;;5043431;28;20096;-80
2023/09/06 07:44:32;;;;;;;6.78;3.80;;;;;;;;;;5042561;28;20053;-81
2023/09/06 07:46:59;;;;;;;6.30;3.50;;;;;;;;;;5026902;28;20049;-81
2023/09/06 07:49:26;;;;;;;6.82;3.90;;;;;;;;;;5029262;28;20076;-80
2023/09/06 07:51:53;;;;;;;8.05;4.10;;;;;;;;;;5042142;28;20408;-80
2023/09/06 07:54:19;;;;;;;7.65;3.70;;;;;;;;;;5043040;28;20060;-81
2023/09/06 07:56:47;;;;;;;6.30;3.38;;;;;;;;;;5034625;28;20552;-82
2023/09/06 07:59:13;;;;;;;7.05;3.50;;;;;;;;;;5041805;28;20407;-81
2023/09/06 08:01:39;;;;;;;7.63;3.38;;;;;;;;;;5042321;28;20049;-81
2023/09/06 08:04:06;;;;;;;5.40;3.00;;;;;;;;;;5042802;28;20882;-83
2023/09/06 08:06:32;;;;;;;9.57;2.88;;;;;;;;;;5031184;28;20481;-82
2023/09/06 08:08:58;;;;;;;6.55;2.85;;;;;;;;;;5041784;28;20072;-81
2023/09/06 08:11:25;;;;;;;8.00;3.00;;;;;;;;;;5041144;28;20099;-81
2023/09/06 08:13:51;;;;;;;10.07;2.90;;;;;;;;;;5039407;28;20049;-81
2023/09/06 08:16:19;;;;;;;6.00;2.70;;;;;;;;;;5042383;28;20041;-81
2023/09/06 08:18:46;;;;;;;10.35;2.78;;;;;;;;;;5036079;28;20041;-77
2023/09/06 08:21:12;;;;;;;8.32;3.38;;;;;;;;;;5032118;28;20049;-79
2023/09/06 08:23:38;;;;;;;6.15;2.38;;;;;;;;;;5033547;28;20053;-77
2023/09/06 08:26:04;;;;;;;7.07;2.58;;;;;;;;;;5016350;28;20040;-77
2023/09/06 08:28:30;;;;;;;5.32;2.40;;;;;;;;;;5029667;28;20412;-77
2023/09/06 08:30:57;;;;;;;6.43;2.60;;;;;;;;;;5011736;28;20403;-76
2023/09/06 08:33:24;;;;;;;7.10;2.63;;;;;;;;;;5015438;28;20092;-78
2023/09/06 08:35:50;;;;;;;7.80;2.45;;;;;;;;;;5024617;28;20037;-77
2023/09/06 08:38:16;;;;;;;5.78;2.60;;;;;;;;;;5023238;28;20084;-76
2023/09/06 08:40:42;;;;;;;6.80;2.92;;;;;;;;;;5022021;28;20132;-77
2023/09/06 08:43:11;;;;;;;7.00;2.50;;;;;;;;;;5030934;28;20124;-77
2023/09/06 08:45:38;;;;;;;7.00;3.00;;;;;;;;;;5032569;28;20399;-77
2023/09/06 08:48:04;;;;;;;6.43;2.70;;;;;;;;;;5039654;28;20046;-78
2023/09/06 08:50:33;;;;;;;5.75;2.72;;;;;;;;;;5032573;28;20037;-77
2023/09/06 08:52:59;;;;;;;6.18;3.13;;;;;;;;;;5033179;28;20045;-76
2023/09/06 08:55:26;;;;;;;7.18;2.90;;;;;;;;;;5026371;28;20047;-77
2023/09/06 08:57:52;;;;;;;5.47;2.75;;;;;;;;;;5032863;28;20176;-77
2023/09/06 09:00:20;;;;;;;5.72;2.65;;;;;;;;;;5031480;28;20056;-77
2023/09/06 09:02:46;;;;;;;5.38;2.28;;;;;;;;;;5031321;28;20056;-77
2023/09/06 09:05:13;;;;;;;7.35;3.05;;;;;;;;;;5033259;28;20567;-77
2023/09/06 09:07:39;;;;;;;6.47;3.03;;;;;;;;;;5031858;28;20041;-76
2023/09/06 09:10:07;;;;;;;6.75;2.47;;;;;;;;;;5032469;28;20053;-77
2023/09/06 09:12:34;;;;;;;7.15;2.38;;;;;;;;;;5031813;28;20418;-77
2023/09/06 09:15:00;;;;;;;9.80;2.55;;;;;;;;;;5033351;28;20507;-77
2023/09/06 09:17:28;;;;;;;9.50;2.58;;;;;;;;;;5031187;28;20064;-77
2023/09/06 09:19:55;;;;;;;5.07;2.30;;;;;;;;;;5026289;28;20050;-79
2023/09/06 09:22:31;;;;;;;7.30;2.60;;;;;;;;;;5032883;28;20120;-77
2023/09/06 09:24:58;;;;;;;7.50;2.40;;;;;;;;;;5016914;28;20045;-77
2023/09/06 09:27:27;;;;;;;5.50;2.65;;;;;;;;;;5032879;28;20045;-77
2023/09/06 09:29:53;;;;;;;6.38;2.30;;;;;;;;;;5031892;28;20498;-77
2023/09/06 09:32:19;;;;;;;6.70;2.20;;;;;;;;;;5032297;28;20041;-78
2023/09/06 09:34:45;;;;;;;5.22;2.55;;;;;;;;;;5030082;28;20103;-77
2023/09/06 09:37:11;;;;;;;7.35;2.60;;;;;;;;;;5026919;28;20060;-77
2023/09/06 09:39:37;;;;;;;4.78;2.17;;;;;;;;;;5033014;28;20056;-77
2023/09/06 09:42:10;;;;;;;5.45;2.20;;;;;;;;;;5032026;28;20042;-76
2023/09/06 09:44:36;;;;;;;6.90;2.10;;;;;;;;;;5031881;28;20068;-77
2023/09/06 09:47:15;;;;;;;7.38;2.30;;;;;;;;;;5032976;28;20088;-77
2023/09/06 09:49:41;;;;;;;6.07;2.40;;;;;;;;;;5024590;28;20127;-77
2023/09/06 09:52:12;;;;;;;4.80;2.20;;;;;;;;;;5013956;28;20049;-77
2023/09/06 09:54:42;;;;;;;5.30;2.30;;;;;;;;;;5032898;28;20539;-77
2023/09/06 09:57:09;;;;;;;6.43;2.30;;;;;;;;;;5031951;28;20503;-77
2023/09/06 09:59:38;;;;;;;6.38;2.33;;;;;;;;;;5032144;28;20038;-78
2023/09/06 10:02:05;;;;;;;7.38;2.40;;;;;;;;;;5019497;28;20065;-77
2023/09/06 10:04:35;;;;;;;10.25;2.50;;;;;;;;;;5016628;28;20069;-77
2023/09/06 10:07:02;;;;;;;5.88;2.47;;;;;;;;;;5013316;28;20057;-78
2023/09/06 10:09:28;;;;;;;6.47;2.10;;;;;;;;;;5013825;28;20057;-77
2023/09/06 10:11:55;;;;;;;6.47;2.28;;;;;;;;;;5032031;28;20496;-77
2023/09/06 10:14:25;;;;;;;7.07;2.63;;;;;;;;;;5032990;28;20484;-78
2023/09/06 10:16:52;;;;;;;4.93;2.40;;;;;;;;;;5031822;28;20037;-78
2023/09/06 10:19:19;;;;;;;7.93;2.17;;;;;;;;;;5014995;28;20120;-77
2023/09/06 10:21:46;;;;;;;7.57;2.10;;;;;;;;;;5031505;28;20041;-78
2023/09/06 10:24:19;;;;;;;6.32;2.40;;;;;;;;;;5029249;28;20052;-77
2023/09/06 10:26:49;;;;;;;5.32;2.05;;;;;;;;;;5032376;28;20447;-78
2023/09/06 10:29:22;;;;;;;4.85;2.15;;;;;;;;;;5031837;28;20046;-78
2023/09/06 10:31:49;;;;;;;4.88;2.33;;;;;;;;;;5031736;28;20113;-77
2023/09/06 10:34:15;;;;;;;4.45;2.08;;;;;;;;;;5026200;28;20053;-77
2023/09/06 10:36:58;;;;;;;8.25;2.45;;;;;;;;;;5012637;28;20057;-77
2023/09/06 10:39:28;;;;;;;7.07;2.33;;;;;;;;;;5030891;28;20504;-77
2023/09/06 10:42:11;;;;;;;8.20;2.47;;;;;;;;;;5032807;28;20147;-77
2023/09/06 10:44:55;;;;;;;5.40;2.28;;;;;;;;;;5015939;28;20506;-77
2023/09/06 10:47:24;;;;;;;6.20;2.40;;;;;;;;;;5033738;28;20500;-78
2023/09/06 10:50:09;;;;;;;4.43;1.90;;;;;;;;;;5036767;28;20053;-78
2023/09/06 10:52:39;;;;;;;7.63;2.40;;;;;;;;;;5033448;28;20041;-81
2023/09/06 10:55:13;;;;;;;6.43;2.50;;;;;;;;;;5039720;28;20074;-80
2023/09/06 10:57:48;;;;;;;4.97;2.45;;;;;;;;;;5040311;28;20104;-78
2023/09/06 11:00:18;;;;;;;6.40;2.10;;;;;;;;;;5039014;28;20049;-80
2023/09/06 11:02:45;;;;;;;5.68;2.10;;;;;;;;;;5009975;28;20419;-78
2023/09/06 11:05:31;;;;;;;7.30;2.47;;;;;;;;;;5024733;28;20053;-75
2023/09/06 11:07:58;;;;;;;6.40;2.20;;;;;;;;;;5016994;28;20123;-75
2023/09/06 11:10:24;;;;;;;6.88;2.20;;;;;;;;;;5033422;28;20037;-76
2023/09/06 11:12:53;;;;;;;5.80;2.20;;;;;;;;;;5031719;28;20053;-80
2023/09/06 11:15:19;;;;;;;5.38;2.30;;;;;;;;;;5035836;28;20053;-78
2023/09/06 11:17:46;;;;;;;5.57;2.28;;;;;;;;;;5035270;28;20043;-76
2023/09/06 11:20:13;;;;;;;4.90;2.20;;;;;;;;;;5035265;28;20060;-76
2023/09/06 11:22:52;;;;;;;4.20;1.90;;;;;;;;;;5024939;28;20045;-76
2023/09/06 11:25:19;;;;;;;4.57;1.83;;;;;;;;;;5034767;28;20049;-76
2023/09/06 11:27:46;;;;;;;7.22;2.20;;;;;;;;;;5033526;28;20045;-74
2023/09/06 11:30:18;;;;;;;5.55;1.80;;;;;;;;;;5034618;28;20060;-76
2023/09/06 11:32:45;;;;;;;6.78;2.20;;;;;;;;;;5033669;28;20634;-76
2023/09/06 11:35:11;;;;;;;5.25;1.80;;;;;;;;;;5033920;28;20045;-76
2023/09/06 11:37:41;;;;;;;4.97;1.92;;;;;;;;;;5032978;28;20088;-75
2023/09/06 11:40:13;;;;;;;7.78;1.90;;;;;;;;;;5010149;28;20052;-77
2023/09/06 11:42:40;;;;;;;4.53;1.80;;;;;;;;;;5031109;28;20055;-76
2023/09/06 11:45:09;;;;;;;5.30;1.98;;;;;;;;;;5035521;28;20099;-76
2023/09/06 11:47:37;;;;;;;4.68;1.90;;;;;;;;;;5035350;28;20407;-75
2023/09/06 11:50:06;;;;;;;5.15;2.00;;;;;;;;;;5033513;28;20128;-76
2023/09/06 11:52:34;;;;;;;5.75;1.83;;;;;;;;;;5033042;28;20375;-76
2023/09/06 11:55:08;;;;;;;4.20;1.83;;;;;;;;;;5034908;28;20053;-76
2023/09/06 11:57:38;;;;;;;4.57;2.10;;;;;;;;;;5034140;28;20208;-75
2023/09/06 12:00:17;;;;;;;4.85;1.88;;;;;;;;;;5032797;28;20120;-77
2023/09/06 12:02:47;;;;;;;7.53;1.70;;;;;;;;;;5035551;28;20058;-76
2023/09/06 12:05:16;;;;;;;6.07;2.00;;;;;;;;;;5033402;28;20492;-78
2023/09/06 12:07:43;;;;;;;7.22;2.03;;;;;;;;;;5033357;28;20476;-77
2023/09/06 12:10:11;;;;;;;5.05;2.17;;;;;;;;;;5033681;28;20041;-77
2023/09/06 12:12:41;;;;;;;4.13;1.77;;;;;;;;;;5015408;28;20050;-75
2023/09/06 12:15:20;;;;;;;3.72;1.80;;;;;;;;;;5027477;28;20045;-76
2023/09/06 12:17:47;;;;;;;6.15;1.90;;;;;;;;;;5033755;28;20137;-75
2023/09/06 12:20:18;;;;;;;3.80;1.70;;;;;;;;;;5034185;28;20052;-77
2023/09/06 12:22:44;;;;;;;4.25;1.60;;;;;;;;;;5016798;28;20053;-75
2023/09/06 12:25:12;;;;;;;5.65;1.92;;;;;;;;;;5033804;28;20053;-75
2023/09/06 12:27:38;;;;;;;4.93;1.83;;;;;;;;;;5033947;28;20124;-75
2023/09/06 12:30:05;;;;;;;6.78;1.85;;;;;;;;;;5026782;28;20046;-75
2023/09/06 12:32:34;;;;;;;4.40;1.92;;;;;;;;;;5033602;28;20045;-75
2023/09/06 12:35:00;;;;;;;5.50;2.00;;;;;;;;;;5032430;28;20050;-76
2023/09/06 12:37:26;;;;;;;7.53;1.80;;;;;;;;;;5033277;28;20059;-76
2023/09/06 12:39:52;;;;;;;5.15;1.90;;;;;;;;;;5015592;28;20053;-77
2023/09/06 12:42:18;;;;;;;5.47;1.90;;;;;;;;;;5034197;28;20419;-77
2023/09/06 12:44:44;;;;;;;4.60;1.90;;;;;;;;;;5032512;28;20045;-77
2023/09/06 12:47:16;;;;;;;4.63;1.73;;;;;;;;;;5033160;28;20060;-77
2023/09/06 12:49:42;;;;;;;4.07;1.80;;;;;;;;;;5032242;28;20474;-77
2023/09/06 12:52:10;;;;;;;4.43;2.00;;;;;;;;;;5033826;28;20045;-77
2023/09/06 12:54:36;;;;;;;7.07;1.75;;;;;;;;;;5026988;28;20057;-76
2023/09/06 12:57:03;;;;;;;6.05;1.70;;;;;;;;;;5033135;28;20057;-77
2023/09/06 12:59:29;;;;;;;4.15;1.83;;;;;;;;;;5033384;28;20076;-77
2023/09/06 13:01:55;;;;;;;5.85;1.92;;;;;;;;;;5041525;28;20045;-76
2023/09/06 13:04:21;;;;;;;4.03;1.60;;;;;;;;;;5022575;28;20045;-77
2023/09/06 13:06:47;;;;;;;6.55;1.63;;;;;;;;;;5027750;28;20132;-76
2023/09/06 13:09:13;;;;;;;3.72;1.50;;;;;;;;;;5033182;28;20116;-76
2023/09/06 13:11:39;;;;;;;3.72;1.60;;;;;;;;;;5015686;28;20103;-77
2023/09/06 13:14:06;;;;;;;3.67;1.50;;;;;;;;;;5029841;28;20033;-77
2023/09/06 13:16:32;;;;;;;5.18;1.40;;;;;;;;;;5029409;28;20384;-76
2023/09/06 13:18:58;;;;;;;4.10;1.52;;;;;;;;;;5006712;28;20099;-77
2023/09/06 13:21:24;;;;;;;7.00;1.90;;;;;;;;;;5018973;28;20100;-76
2023/09/06 13:23:50;;;;;;;5.85;1.70;;;;;;;;;;5024847;28;20168;-76
2023/09/06 13:26:16;;;;;;;4.85;1.80;;;;;;;;;;5020186;28;20080;-76
2023/09/06 13:28:43;;;;;;;4.10;1.60;;;;;;;;;;5019883;28;20056;-77
2023/09/06 13:31:10;;;;;;;7.15;1.45;;;;;;;;;;5021507;28;20037;-75
2023/09/06 13:33:36;;;;;;;3.55;1.40;;;;;;;;;;5005761;28;20049;-75
2023/09/06 13:36:04;;;;;;;2.78;1.20;;;;;;;;;;4984802;28;20099;-76
2023/09/06 13:38:30;;;;;;;5.28;1.67;;;;;;;;;;5006112;28;20042;-76
2023/09/06 13:40:57;;;;;;;3.13;1.30;;;;;;;;;;5025191;28;20069;-76
2023/09/06 13:43:23;;;;;;;4.78;1.80;;;;;;;;;;5024931;28;20172;-77
2023/09/06 13:45:49;;;;;;;4.40;1.27;;;;;;;;;;5019034;28;20136;-77
2023/09/06 13:48:15;;;;;;;6.18;1.50;;;;;;;;;;5019054;28;20042;-77
2023/09/06 13:50:42;;;;;;;4.75;1.50;;;;;;;;;;5023927;28;20059;-76
2023/09/06 13:53:08;;;;;;;4.18;1.52;;;;;;;;;;5022198;28;20058;-76
2023/09/06 13:55:34;;;;;;;4.75;1.40;;;;;;;;;;5018416;28;20042;-77
2023/09/06 13:58:00;;;;;;;5.35;1.40;;;;;;;;;;5025615;28;20154;-77
2023/09/06 14:00:26;;;;;;;4.18;1.33;;;;;;;;;;5026503;28;20056;-76
2023/09/06 14:02:52;;;;;;;4.35;1.40;;;;;;;;;;5007480;28;20091;-76
2023/09/06 14:05:18;;;;;;;5.57;1.65;;;;;;;;;;5020646;28;20053;-76
2023/09/06 14:07:44;;;;;;;2.75;1.13;;;;;;;;;;5019333;28;20053;-76
2023/09/06 14:10:10;;;;;;;4.30;1.40;;;;;;;;;;5021591;28;20412;-76
2023/09/06 14:12:36;;;;;;;3.35;1.30;;;;;;;;;;5019808;28;20557;-76
2023/09/06 14:15:02;;;;;;;4.32;1.30;;;;;;;;;;5024423;28;20049;-76
2023/09/06 14:17:28;;;;;;;8.13;1.65;;;;;;;;;;5023183;28;20049;-77
2023/09/06 14:19:54;;;;;;;4.70;1.60;;;;;;;;;;5022850;28;20505;-77
2023/09/06 14:22:20;;;;;;;4.32;1.60;;;;;;;;;;5020857;28;20060;-76
2023/09/06 14:24:46;;;;;;;2.78;1.15;;;;;;;;;;5020991;28;20049;-76
2023/09/06 14:27:15;;;;;;;3.97;1.45;;;;;;;;;;5022384;28;20042;-77
2023/09/06 14:29:41;;;;;;;3.28;1.20;;;;;;;;;;5025295;28;20124;-77
2023/09/06 14:32:07;;;;;;;3.90;1.13;;;;;;;;;;5024230;28;20049;-76
2023/09/06 14:34:34;;;;;;;2.88;1.20;;;;;;;;;;5024374;28;20080;-76
2023/09/06 14:37:00;;;;;;;3.33;1.13;;;;;;;;;;5024367;28;20076;-76
2023/09/06 14:39:27;;;;;;;4.45;1.40;;;;;;;;;;5019446;28;20082;-76
2023/09/06 14:41:53;;;;;;;4.00;1.27;;;;;;;;;;5001356;28;20053;-76
2023/09/06 14:44:19;;;;;;;5.20;1.30;;;;;;;;;;5017732;28;20616;-76
2023/09/06 14:46:45;;;;;;;2.95;1.20;;;;;;;;;;5020535;28;20049;-76
2023/09/06 14:49:12;;;;;;;4.18;1.30;;;;;;;;;;5021063;28;20128;-75
2023/09/06 14:51:38;;;;;;;4.18;1.50;;;;;;;;;;5019033;28;20124;-76
2023/09/06 14:54:05;;;;;;;8.65;1.30;;;;;;;;;;5019394;28;20041;-76
2023/09/06 14:56:31;;;;;;;4.05;1.33;;;;;;;;;;5018901;28;20088;-76
2023/09/06 14:58:57;;;;;;;5.47;1.25;;;;;;;;;;5024056;28;20080;-77
2023/09/06 15:01:23;;;;;;;6.47;1.50;;;;;;;;;;5024389;28;20052;-76
2023/09/06 15:03:49;;;;;;;4.88;1.40;;;;;;;;;;5024869;28;20037;-76
2023/09/06 15:06:16;;;;;;;6.70;1.50;;;;;;;;;;5018286;28;20099;-77
2023/09/06 15:08:42;;;;;;;4.00;1.50;;;;;;;;;;5018775;28;20503;-76
2023/09/06 15:11:09;;;;;;;5.18;1.48;;;;;;;;;;5020027;28;20128;-76
2023/09/06 15:13:35;;;;;;;4.28;1.48;;;;;;;;;;5019597;28;20099;-76
2023/09/06 15:16:01;;;;;;;5.55;1.70;;;;;;;;;;5030264;28;20548;-76